Aviation Digital Data Service (ADDS)

Output produced by METARs form (1951 UTC 31 January 2023)
found at http://www.aviationweather.gov/metar/data/
 
VTSP 311930Z 06005KT 350V120 9999 FEW020 25/22 Q1009 NOSIG
VTSP 311900Z 07005KT 020V090 9999 FEW020 25/21 Q1010 NOSIG
VTSP 311830Z 07006KT 010V120 9999 FEW020 25/22 Q1010 NOSIG
VTSP 311800Z 07006KT 330V110 9999 FEW020 25/22 Q1010 NOSIG
VTSP 311730Z VRB04KT 9999 FEW020 25/22 Q1010 NOSIG
VTSP 311700Z VRB04KT 9999 FEW020 25/22 Q1011 NOSIG
VTSP 311630Z 07004KT 310V100 9999 FEW020 25/22 Q1010 NOSIG
VTSP 311600Z 07005KT 020V100 9999 FEW020 25/22 Q1011 NOSIG
VTSP 311530Z 07004KT 010V130 9999 FEW020 25/22 Q1011 NOSIG
VTSP 311500Z 07005KT 020V100 9999 FEW020 25/22 Q1010 NOSIG
VTSP 311430Z 08008KT 050V110 9999 FEW020 26/22 Q1010 NOSIG
VTSP 311400Z 08008KT 020V100 9999 FEW020 26/22 Q1010 NOSIG
VTSP 311330Z VRB05KT 9999 FEW020 26/22 Q1009 NOSIG
VTSP 311300Z 07007KT 010V100 9999 FEW020 26/22 Q1009 NOSIG
VTSP 311230Z 07005KT 020V100 9999 FEW020 26/22 Q1008 NOSIG
VTSP 311200Z 07006KT 010V110 9999 FEW020 27/22 Q1008 NOSIG
VTSP 311130Z 06007KT 340V100 9999 FEW020 27/22 Q1008 NOSIG
VTSP 311100Z 06006KT 020V100 9999 FEW020 28/22 Q1007 NOSIG
VTSP 311030Z 07006KT 360V110 9999 FEW020 28/22 Q1007 NOSIG
VTSP 311000Z 08008KT 030V100 9999 FEW020 29/22 Q1007 NOSIG
VTSP 310930Z 08009KT 040V110 9999 FEW020 30/22 Q1007 NOSIG
VTSP 310900Z 08010KT 030V100 9999 FEW020 30/22 Q1007 NOSIG
VTSP 310830Z 09010KT 050V120 9999 FEW020 31/22 Q1007 NOSIG
VTSP 310800Z 07010KT 040V100 9999 FEW020 29/22 Q1007 NOSIG
VTSP 310730Z 08009KT 020V110 9999 FEW020 SCT100 30/22 Q1008 NOSIG
VTSP 310700Z 08010KT 9999 FEW020 SCT100 29/22 Q1008 NOSIG
VTSP 310630Z 07009KT 020V110 9999 FEW020 SCT100 29/22 Q1009 NOSIG
VTSP 310600Z 09012KT 020V120 9999 FEW020 SCT100 30/22 Q1010 NOSIG
VTSP 310530Z 09012KT 050V120 9999 FEW020 30/22 Q1010 NOSIG
VTSP 310500Z 09011KT 050V110 9999 FEW020 30/22 Q1010 NOSIG
VTSP 310430Z 08011KT 050V110 9999 FEW020 29/21 Q1011 NOSIG
VTSP 310400Z 08008KT 040V110 9999 FEW020 SCT100 29/22 Q1011 NOSIG
VTSP 310330Z 08008KT 010V130 9999 FEW020 BKN100 28/22 Q1012 NOSIG
VTSP 310300Z 07007KT 010V110 9999 FEW020 BKN100 27/22 Q1012 NOSIG
VTSP 310230Z 07007KT 020V100 9999 FEW020 BKN100 26/22 Q1012 NOSIG
VTSP 310200Z 07006KT 010V100 9999 FEW020 BKN100 26/22 Q1011 NOSIG
VTSP 310130Z 07007KT 020V100 9999 FEW020 BKN100 25/22 Q1011 NOSIG
VTSP 310100Z 07004KT 020V100 9999 FEW020 SCT100 25/22 Q1011 NOSIG
VTSP 310030Z VRB02KT 9999 FEW020 SCT100 24/21 Q1010 NOSIG
VTSP 310000Z 07003KT 010V140 9999 FEW020 SCT100 24/21 Q1010 NOSIG
VTSP 302330Z 07004KT 010V120 9999 FEW020 SCT100 24/21 Q1010 NOSIG
VTSP 302300Z VRB02KT 9999 FEW020 SCT100 24/21 Q1009 NOSIG
VTSP 302230Z 07003KT 350V100 9999 FEW020 SCT100 24/21 Q1009 NOSIG
VTSP 302200Z 07005KT 020V100 9999 FEW020 SCT100 24/21 Q1009 NOSIG
VTSP 302130Z 06004KT 010V100 9999 FEW020 24/21 Q1009 NOSIG
VTSP 302100Z 06004KT 350V100 9999 FEW020 SCT100 24/21 Q1009 NOSIG
VTSP 302030Z 06003KT 350V100 9999 FEW020 SCT100 25/21 Q1009 NOSIG
VTSP 302000Z 07004KT 010V110 9999 FEW020 SCT100 25/21 Q1009 NOSIG
VTSP 301930Z 07005KT 020V100 9999 FEW020 SCT100 25/21 Q1009 NOSIG
VTSP 301900Z 07005KT 340V110 9999 FEW020 SCT100 25/21 Q1010 NOSIG
TAF VTSP 311700Z 3118/0124 08006KT 9999 SCT020 
     BECMG 0108/0110 30006KT